Terminal Aerodrome Forecast
Issued by NWS Cleveland, OH

Home | Current Version | Previous Version | Text Only | Print | Product List | Glossary On
Versions: 1 2 3 4 5 6 7 8 9 10 11 12 13 14 15 16
000
FTUS41 KCLE 250539
TAFYNG
TAF
KYNG 250539Z 2506/2606 19009KT P6SM BKN250 WS020/23045KT
     FM250900 20009KT P6SM BKN200
     FM251300 23008KT P6SM BKN080
     FM251600 27012G20KT P6SM OVC025
     FM251800 28010G18KT P6SM VCSH OVC015
     FM252300 29010KT P6SM OVC030
     FM260400 30008KT P6SM BKN040=

USA.gov is the U.S. government's official web portal to all federal, state and local government web resources and services.